sensor_id;sensor_type;location;lat;lon;timestamp;P1;durP1;ratioP1;P2;durP2;ratioP2
3873;SDS011;1952;50.872;6.692;2022-10-30T00:32:48;12.77;;;8.67;;
3873;SDS011;1952;50.872;6.692;2022-10-30T00:35:16;10.93;;;8.47;;
3873;SDS011;1952;50.872;6.692;2022-10-30T00:37:44;13.90;;;9.47;;
3873;SDS011;1952;50.872;6.692;2022-10-30T00:40:13;12.60;;;9.10;;
3873;SDS011;1952;50.872;6.692;2022-10-30T00:42:42;17.93;;;9.23;;
3873;SDS011;1952;50.872;6.692;2022-10-30T00:45:10;11.03;;;8.33;;
3873;SDS011;1952;50.872;6.692;2022-10-30T00:47:39;10.77;;;7.63;;
3873;SDS011;1952;50.872;6.692;2022-10-30T00:50:11;14.27;;;8.13;;
3873;SDS011;1952;50.872;6.692;2022-10-30T00:52:41;11.90;;;8.73;;
3873;SDS011;1952;50.872;6.692;2022-10-30T00:55:16;12.67;;;8.30;;
3873;SDS011;1952;50.872;6.692;2022-10-30T00:58:02;11.60;;;8.30;;
3873;SDS011;1952;50.872;6.692;2022-10-30T01:00:33;13.17;;;8.63;;
3873;SDS011;1952;50.872;6.692;2022-10-30T01:03:05;13.77;;;8.33;;
3873;SDS011;1952;50.872;6.692;2022-10-30T01:05:35;13.80;;;7.10;;
3873;SDS011;1952;50.872;6.692;2022-10-30T01:08:03;12.37;;;8.07;;
3873;SDS011;1952;50.872;6.692;2022-10-30T01:10:31;8.47;;;7.57;;
3873;SDS011;1952;50.872;6.692;2022-10-30T01:13:00;12.73;;;8.67;;
3873;SDS011;1952;50.872;6.692;2022-10-30T01:15:29;13.43;;;8.90;;
3873;SDS011;1952;50.872;6.692;2022-10-30T01:18:18;12.60;;;8.27;;
3873;SDS011;1952;50.872;6.692;2022-10-30T01:23:52;8.97;;;8.03;;
3873;SDS011;1952;50.872;6.692;2022-10-30T01:26:31;10.40;;;8.17;;
3873;SDS011;1952;50.872;6.692;2022-10-30T01:29:10;11.87;;;8.50;;
3873;SDS011;1952;50.872;6.692;2022-10-30T01:31:43;10.13;;;9.13;;
3873;SDS011;1952;50.872;6.692;2022-10-30T01:34:21;11.60;;;9.00;;
3873;SDS011;1952;50.872;6.692;2022-10-30T01:37:00;8.80;;;7.80;;
3873;SDS011;1952;50.872;6.692;2022-10-30T01:39:37;8.70;;;7.90;;
3873;SDS011;1952;50.872;6.692;2022-10-30T01:44:54;12.30;;;8.40;;
3873;SDS011;1952;50.872;6.692;2022-10-30T01:47:29;11.50;;;7.97;;
3873;SDS011;1952;50.872;6.692;2022-10-30T01:50:08;10.70;;;8.50;;
3873;SDS011;1952;50.872;6.692;2022-10-30T01:52:43;13.17;;;7.83;;
3873;SDS011;1952;50.872;6.692;2022-10-30T01:55:15;13.27;;;8.10;;
3873;SDS011;1952;50.872;6.692;2022-10-30T01:57:56;15.83;;;9.50;;
3873;SDS011;1952;50.872;6.692;2022-10-30T02:00:31;11.27;;;8.77;;
3873;SDS011;1952;50.872;6.692;2022-10-30T02:02:59;15.57;;;8.63;;
3873;SDS011;1952;50.872;6.692;2022-10-30T02:05:29;16.20;;;9.90;;
3873;SDS011;1952;50.872;6.692;2022-10-30T02:08:01;10.33;;;8.97;;
3873;SDS011;1952;50.872;6.692;2022-10-30T02:10:35;12.13;;;8.77;;
3873;SDS011;1952;50.872;6.692;2022-10-30T02:13:03;10.10;;;8.60;;
3873;SDS011;1952;50.872;6.692;2022-10-30T02:15:37;9.13;;;8.03;;
3873;SDS011;1952;50.872;6.692;2022-10-30T02:18:05;16.00;;;9.17;;
3873;SDS011;1952;50.872;6.692;2022-10-30T02:20:35;15.00;;;8.97;;
3873;SDS011;1952;50.872;6.692;2022-10-30T02:23:04;10.90;;;9.47;;
3873;SDS011;1952;50.872;6.692;2022-10-30T02:25:34;13.00;;;8.70;;
3873;SDS011;1952;50.872;6.692;2022-10-30T02:28:07;12.23;;;8.93;;
3873;SDS011;1952;50.872;6.692;2022-10-30T02:30:40;11.63;;;8.20;;
3873;SDS011;1952;50.872;6.692;2022-10-30T02:33:14;10.73;;;7.50;;
3873;SDS011;1952;50.872;6.692;2022-10-30T02:35:49;9.67;;;7.77;;
3873;SDS011;1952;50.872;6.692;2022-10-30T02:38:18;12.60;;;10.67;;
3873;SDS011;1952;50.872;6.692;2022-10-30T02:40:46;11.97;;;8.23;;
3873;SDS011;1952;50.872;6.692;2022-10-30T02:43:14;11.97;;;8.43;;
3873;SDS011;1952;50.872;6.692;2022-10-30T02:45:48;13.90;;;8.97;;
3873;SDS011;1952;50.872;6.692;2022-10-30T02:48:22;11.27;;;9.90;;
3873;SDS011;1952;50.872;6.692;2022-10-30T02:50:52;10.10;;;9.07;;
3873;SDS011;1952;50.872;6.692;2022-10-30T02:53:20;10.30;;;7.80;;
3873;SDS011;1952;50.872;6.692;2022-10-30T02:55:53;11.00;;;8.33;;
3873;SDS011;1952;50.872;6.692;2022-10-30T02:58:21;11.00;;;8.90;;
3873;SDS011;1952;50.872;6.692;2022-10-30T03:00:54;13.40;;;8.93;;
3873;SDS011;1952;50.872;6.692;2022-10-30T03:03:22;15.50;;;8.10;;
3873;SDS011;1952;50.872;6.692;2022-10-30T03:05:59;15.70;;;8.03;;
3873;SDS011;1952;50.872;6.692;2022-10-30T03:08:33;17.17;;;8.23;;
3873;SDS011;1952;50.872;6.692;2022-10-30T03:11:01;8.40;;;7.20;;
3873;SDS011;1952;50.872;6.692;2022-10-30T03:13:35;8.70;;;7.60;;
3873;SDS011;1952;50.872;6.692;2022-10-30T03:16:11;11.50;;;7.80;;
3873;SDS011;1952;50.872;6.692;2022-10-30T03:18:41;21.50;;;7.90;;
3873;SDS011;1952;50.872;6.692;2022-10-30T03:21:17;9.03;;;8.23;;
3873;SDS011;1952;50.872;6.692;2022-10-30T03:23:45;9.80;;;7.87;;
3873;SDS011;1952;50.872;6.692;2022-10-30T03:26:20;12.67;;;7.37;;
3873;SDS011;1952;50.872;6.692;2022-10-30T03:28:54;14.13;;;7.90;;
3873;SDS011;1952;50.872;6.692;2022-10-30T03:31:23;10.00;;;8.37;;
3873;SDS011;1952;50.872;6.692;2022-10-30T03:34:06;10.40;;;6.87;;
3873;SDS011;1952;50.872;6.692;2022-10-30T03:36:41;9.23;;;6.93;;
3873;SDS011;1952;50.872;6.692;2022-10-30T03:39:09;9.83;;;7.53;;
3873;SDS011;1952;50.872;6.692;2022-10-30T03:41:37;15.33;;;8.77;;
3873;SDS011;1952;50.872;6.692;2022-10-30T03:44:05;8.70;;;7.03;;
3873;SDS011;1952;50.872;6.692;2022-10-30T03:46:38;8.80;;;7.10;;
3873;SDS011;1952;50.872;6.692;2022-10-30T03:49:07;13.63;;;7.70;;
3873;SDS011;1952;50.872;6.692;2022-10-30T03:51:34;9.70;;;7.23;;
3873;SDS011;1952;50.872;6.692;2022-10-30T03:54:04;9.57;;;8.60;;
3873;SDS011;1952;50.872;6.692;2022-10-30T03:56:37;11.83;;;7.57;;
3873;SDS011;1952;50.872;6.692;2022-10-30T03:59:19;8.80;;;7.07;;
3873;SDS011;1952;50.872;6.692;2022-10-30T04:01:47;9.10;;;6.87;;
3873;SDS011;1952;50.872;6.692;2022-10-30T04:04:29;9.17;;;7.20;;
3873;SDS011;1952;50.872;6.692;2022-10-30T04:07:12;14.03;;;6.80;;
3873;SDS011;1952;50.872;6.692;2022-10-30T04:09:49;11.83;;;6.90;;
3873;SDS011;1952;50.872;6.692;2022-10-30T04:12:23;14.40;;;8.00;;
3873;SDS011;1952;50.872;6.692;2022-10-30T04:14:57;7.37;;;6.50;;
3873;SDS011;1952;50.872;6.692;2022-10-30T04:17:31;6.80;;;6.20;;
3873;SDS011;1952;50.872;6.692;2022-10-30T04:19:59;7.50;;;5.80;;
3873;SDS011;1952;50.872;6.692;2022-10-30T04:22:41;8.90;;;6.00;;
3873;SDS011;1952;50.872;6.692;2022-10-30T04:25:31;8.17;;;6.77;;
3873;SDS011;1952;50.872;6.692;2022-10-30T04:28:09;11.17;;;7.83;;
3873;SDS011;1952;50.872;6.692;2022-10-30T04:30:45;11.20;;;6.10;;
3873;SDS011;1952;50.872;6.692;2022-10-30T04:33:15;7.50;;;6.67;;
3873;SDS011;1952;50.872;6.692;2022-10-30T04:35:49;20.50;;;6.80;;
3873;SDS011;1952;50.872;6.692;2022-10-30T04:38:18;8.70;;;6.60;;
3873;SDS011;1952;50.872;6.692;2022-10-30T04:40:48;11.57;;;6.47;;
3873;SDS011;1952;50.872;6.692;2022-10-30T04:43:21;8.40;;;7.13;;
3873;SDS011;1952;50.872;6.692;2022-10-30T04:45:50;13.97;;;7.80;;
3873;SDS011;1952;50.872;6.692;2022-10-30T04:48:32;9.90;;;7.50;;
3873;SDS011;1952;50.872;6.692;2022-10-30T04:51:22;10.77;;;7.60;;
3873;SDS011;1952;50.872;6.692;2022-10-30T04:54:06;9.43;;;6.73;;
3873;SDS011;1952;50.872;6.692;2022-10-30T04:59:41;12.07;;;7.80;;
3873;SDS011;1952;50.872;6.692;2022-10-30T05:02:15;13.47;;;8.00;;
3873;SDS011;1952;50.872;6.692;2022-10-30T05:04:45;10.80;;;7.17;;
3873;SDS011;1952;50.872;6.692;2022-10-30T05:07:27;9.50;;;7.00;;
3873;SDS011;1952;50.872;6.692;2022-10-30T05:10:10;13.73;;;8.20;;
3873;SDS011;1952;50.872;6.692;2022-10-30T05:12:46;7.73;;;6.93;;
3873;SDS011;1952;50.872;6.692;2022-10-30T05:15:31;14.50;;;6.90;;
3873;SDS011;1952;50.872;6.692;2022-10-30T05:18:14;8.13;;;6.23;;
3873;SDS011;1952;50.872;6.692;2022-10-30T05:21:10;11.23;;;7.70;;
3873;SDS011;1952;50.872;6.692;2022-10-30T05:23:46;10.13;;;6.97;;
3873;SDS011;1952;50.872;6.692;2022-10-30T05:26:19;8.10;;;6.77;;
3873;SDS011;1952;50.872;6.692;2022-10-30T05:28:48;8.80;;;6.47;;
3873;SDS011;1952;50.872;6.692;2022-10-30T05:31:33;8.93;;;6.20;;
3873;SDS011;1952;50.872;6.692;2022-10-30T05:34:24;9.33;;;6.90;;
3873;SDS011;1952;50.872;6.692;2022-10-30T05:37:20;10.27;;;6.70;;
3873;SDS011;1952;50.872;6.692;2022-10-30T05:39:56;8.10;;;7.30;;
3873;SDS011;1952;50.872;6.692;2022-10-30T05:42:52;9.10;;;6.40;;
3873;SDS011;1952;50.872;6.692;2022-10-30T05:45:37;8.97;;;6.33;;
3873;SDS011;1952;50.872;6.692;2022-10-30T05:48:08;8.17;;;7.40;;
3873;SDS011;1952;50.872;6.692;2022-10-30T05:50:59;7.70;;;6.60;;
3873;SDS011;1952;50.872;6.692;2022-10-30T06:32:22;8.93;;;8.13;;
3873;SDS011;1952;50.872;6.692;2022-10-30T06:34:50;12.97;;;7.40;;
3873;SDS011;1952;50.872;6.692;2022-10-30T06:37:18;12.80;;;8.40;;
3873;SDS011;1952;50.872;6.692;2022-10-30T06:39:51;8.30;;;7.20;;
3873;SDS011;1952;50.872;6.692;2022-10-30T06:42:24;15.87;;;7.30;;
3873;SDS011;1952;50.872;6.692;2022-10-30T06:44:52;11.00;;;6.90;;
3873;SDS011;1952;50.872;6.692;2022-10-30T06:47:26;10.40;;;8.20;;
3873;SDS011;1952;50.872;6.692;2022-10-30T06:49:59;15.00;;;8.27;;
3873;SDS011;1952;50.872;6.692;2022-10-30T06:52:32;12.87;;;8.03;;
3873;SDS011;1952;50.872;6.692;2022-10-30T06:55:00;10.50;;;7.43;;
3873;SDS011;1952;50.872;6.692;2022-10-30T06:57:29;10.93;;;7.80;;
3873;SDS011;1952;50.872;6.692;2022-10-30T06:59:57;9.27;;;7.17;;
3873;SDS011;1952;50.872;6.692;2022-10-30T07:02:26;13.53;;;7.50;;
3873;SDS011;1952;50.872;6.692;2022-10-30T07:04:55;12.93;;;7.03;;
3873;SDS011;1952;50.872;6.692;2022-10-30T07:07:28;10.37;;;7.97;;
3873;SDS011;1952;50.872;6.692;2022-10-30T07:09:56;12.37;;;7.53;;
3873;SDS011;1952;50.872;6.692;2022-10-30T07:12:29;10.37;;;7.33;;
3873;SDS011;1952;50.872;6.692;2022-10-30T07:15:02;7.73;;;7.00;;
3873;SDS011;1952;50.872;6.692;2022-10-30T07:17:32;9.87;;;6.90;;
3873;SDS011;1952;50.872;6.692;2022-10-30T07:20:00;13.67;;;7.07;;
3873;SDS011;1952;50.872;6.692;2022-10-30T07:22:33;7.97;;;6.83;;
3873;SDS011;1952;50.872;6.692;2022-10-30T07:25:09;7.87;;;7.10;;
3873;SDS011;1952;50.872;6.692;2022-10-30T07:27:40;12.57;;;7.40;;
3873;SDS011;1952;50.872;6.692;2022-10-30T07:30:09;7.83;;;7.13;;
3873;SDS011;1952;50.872;6.692;2022-10-30T07:32:39;10.10;;;7.33;;
3873;SDS011;1952;50.872;6.692;2022-10-30T07:35:12;8.47;;;7.50;;
3873;SDS011;1952;50.872;6.692;2022-10-30T07:37:46;8.17;;;7.40;;
3873;SDS011;1952;50.872;6.692;2022-10-30T07:40:14;11.30;;;6.07;;
3873;SDS011;1952;50.872;6.692;2022-10-30T07:42:47;7.07;;;6.30;;
3873;SDS011;1952;50.872;6.692;2022-10-30T07:45:15;10.80;;;7.27;;
3873;SDS011;1952;50.872;6.692;2022-10-30T07:47:48;13.67;;;7.30;;
3873;SDS011;1952;50.872;6.692;2022-10-30T07:50:16;10.27;;;7.00;;
3873;SDS011;1952;50.872;6.692;2022-10-30T07:52:49;9.80;;;6.50;;
3873;SDS011;1952;50.872;6.692;2022-10-30T07:55:18;14.40;;;7.50;;
3873;SDS011;1952;50.872;6.692;2022-10-30T07:57:46;8.47;;;7.67;;
3873;SDS011;1952;50.872;6.692;2022-10-30T08:00:20;7.50;;;6.13;;
3873;SDS011;1952;50.872;6.692;2022-10-30T08:06:17;9.50;;;6.30;;
3873;SDS011;1952;50.872;6.692;2022-10-30T08:08:53;7.23;;;6.00;;
3873;SDS011;1952;50.872;6.692;2022-10-30T08:11:36;6.73;;;6.13;;
3873;SDS011;1952;50.872;6.692;2022-10-30T08:14:32;8.70;;;5.80;;
3873;SDS011;1952;50.872;6.692;2022-10-30T08:17:32;11.70;;;7.80;;
3873;SDS011;1952;50.872;6.692;2022-10-30T08:26:33;7.13;;;6.40;;
3873;SDS011;1952;50.872;6.692;2022-10-30T08:29:23;7.50;;;6.87;;
3873;SDS011;1952;50.872;6.692;2022-10-30T08:32:22;11.93;;;8.57;;
3873;SDS011;1952;50.872;6.692;2022-10-30T08:35:18;8.70;;;7.80;;
3873;SDS011;1952;50.872;6.692;2022-10-30T08:38:02;10.80;;;7.23;;
3873;SDS011;1952;50.872;6.692;2022-10-30T08:40:46;8.30;;;7.43;;
3873;SDS011;1952;50.872;6.692;2022-10-30T08:43:21;8.60;;;6.97;;
3873;SDS011;1952;50.872;6.692;2022-10-30T08:45:50;7.17;;;6.50;;
3873;SDS011;1952;50.872;6.692;2022-10-30T08:48:23;6.30;;;5.70;;
3873;SDS011;1952;50.872;6.692;2022-10-30T08:51:19;9.70;;;5.87;;
3873;SDS011;1952;50.872;6.692;2022-10-30T08:54:15;8.70;;;6.80;;
3873;SDS011;1952;50.872;6.692;2022-10-30T09:00:11;10.17;;;7.00;;
3873;SDS011;1952;50.872;6.692;2022-10-30T09:02:39;8.23;;;7.40;;
3873;SDS011;1952;50.872;6.692;2022-10-30T09:05:23;9.37;;;6.67;;
3873;SDS011;1952;50.872;6.692;2022-10-30T09:08:19;9.83;;;6.37;;
3873;SDS011;1952;50.872;6.692;2022-10-30T09:11:15;13.53;;;6.20;;
3873;SDS011;1952;50.872;6.692;2022-10-30T09:14:07;7.80;;;6.57;;
3873;SDS011;1952;50.872;6.692;2022-10-30T09:23:37;9.60;;;5.93;;
3873;SDS011;1952;50.872;6.692;2022-10-30T09:26:10;7.57;;;5.80;;
3873;SDS011;1952;50.872;6.692;2022-10-30T09:28:45;8.80;;;6.07;;
3873;SDS011;1952;50.872;6.692;2022-10-30T09:31:28;8.80;;;7.50;;
3873;SDS011;1952;50.872;6.692;2022-10-30T09:34:24;12.13;;;6.50;;
3873;SDS011;1952;50.872;6.692;2022-10-30T09:37:20;7.83;;;6.17;;
3873;SDS011;1952;50.872;6.692;2022-10-30T09:40:09;7.33;;;6.13;;
3873;SDS011;1952;50.872;6.692;2022-10-30T09:42:51;11.10;;;6.40;;
3873;SDS011;1952;50.872;6.692;2022-10-30T09:48:57;7.13;;;6.27;;
3873;SDS011;1952;50.872;6.692;2022-10-30T09:52:11;7.30;;;5.60;;
3873;SDS011;1952;50.872;6.692;2022-10-30T10:07:58;9.03;;;6.47;;
3873;SDS011;1952;50.872;6.692;2022-10-30T10:10:46;8.30;;;6.30;;
3873;SDS011;1952;50.872;6.692;2022-10-30T10:13:48;9.00;;;6.40;;
3873;SDS011;1952;50.872;6.692;2022-10-30T10:16:37;8.90;;;6.37;;
3873;SDS011;1952;50.872;6.692;2022-10-30T10:22:54;9.23;;;6.60;;
3873;SDS011;1952;50.872;6.692;2022-10-30T10:25:32;9.00;;;6.77;;
3873;SDS011;1952;50.872;6.692;2022-10-30T10:28:41;10.27;;;6.60;;
3873;SDS011;1952;50.872;6.692;2022-10-30T10:31:23;9.83;;;6.57;;
3873;SDS011;1952;50.872;6.692;2022-10-30T10:34:30;9.73;;;7.00;;
3873;SDS011;1952;50.872;6.692;2022-10-30T10:37:45;10.27;;;6.50;;
3873;SDS011;1952;50.872;6.692;2022-10-30T10:40:53;10.30;;;6.63;;
3873;SDS011;1952;50.872;6.692;2022-10-30T10:43:43;9.77;;;7.53;;
3873;SDS011;1952;50.872;6.692;2022-10-30T10:46:57;15.03;;;6.80;;
3873;SDS011;1952;50.872;6.692;2022-10-30T10:49:52;9.10;;;5.90;;
3873;SDS011;1952;50.872;6.692;2022-10-30T10:52:46;6.93;;;6.23;;
3873;SDS011;1952;50.872;6.692;2022-10-30T11:06:10;11.50;;;6.33;;
3873;SDS011;1952;50.872;6.692;2022-10-30T11:09:13;7.77;;;5.97;;
3873;SDS011;1952;50.872;6.692;2022-10-30T11:11:52;9.20;;;7.27;;
3873;SDS011;1952;50.872;6.692;2022-10-30T11:14:49;11.40;;;6.00;;
3873;SDS011;1952;50.872;6.692;2022-10-30T11:17:49;10.17;;;6.20;;
3873;SDS011;1952;50.872;6.692;2022-10-30T11:23:59;8.50;;;5.90;;
3873;SDS011;1952;50.872;6.692;2022-10-30T11:26:32;9.73;;;6.53;;
3873;SDS011;1952;50.872;6.692;2022-10-30T11:29:02;8.93;;;5.30;;
3873;SDS011;1952;50.872;6.692;2022-10-30T11:31:33;10.17;;;5.40;;
3873;SDS011;1952;50.872;6.692;2022-10-30T11:34:22;7.90;;;6.07;;
3873;SDS011;1952;50.872;6.692;2022-10-30T11:36:56;8.53;;;6.00;;
3873;SDS011;1952;50.872;6.692;2022-10-30T11:39:25;6.70;;;6.00;;
3873;SDS011;1952;50.872;6.692;2022-10-30T11:41:54;10.80;;;5.90;;
3873;SDS011;1952;50.872;6.692;2022-10-30T11:44:32;9.53;;;6.87;;
3873;SDS011;1952;50.872;6.692;2022-10-30T11:47:07;9.47;;;6.70;;
3873;SDS011;1952;50.872;6.692;2022-10-30T11:49:42;8.17;;;5.80;;
3873;SDS011;1952;50.872;6.692;2022-10-30T11:52:18;6.70;;;6.00;;
3873;SDS011;1952;50.872;6.692;2022-10-30T12:43:47;7.57;;;5.20;;
3873;SDS011;1952;50.872;6.692;2022-10-30T12:46:25;8.53;;;5.80;;
3873;SDS011;1952;50.872;6.692;2022-10-30T12:49:06;8.20;;;6.90;;
3873;SDS011;1952;50.872;6.692;2022-10-30T12:51:41;8.93;;;6.07;;
3873;SDS011;1952;50.872;6.692;2022-10-30T12:54:24;7.97;;;5.20;;
3873;SDS011;1952;50.872;6.692;2022-10-30T12:57:05;14.50;;;5.50;;
3873;SDS011;1952;50.872;6.692;2022-10-30T12:59:48;9.23;;;5.63;;
3873;SDS011;1952;50.872;6.692;2022-10-30T13:02:35;7.17;;;4.83;;
3873;SDS011;1952;50.872;6.692;2022-10-30T13:08:11;12.17;;;5.20;;
3873;SDS011;1952;50.872;6.692;2022-10-30T13:10:47;7.17;;;5.13;;
3873;SDS011;1952;50.872;6.692;2022-10-30T13:13:22;9.10;;;4.40;;
3873;SDS011;1952;50.872;6.692;2022-10-30T13:16:01;8.77;;;4.60;;
3873;SDS011;1952;50.872;6.692;2022-10-30T13:18:32;8.90;;;4.87;;
3873;SDS011;1952;50.872;6.692;2022-10-30T13:21:03;7.03;;;5.30;;
3873;SDS011;1952;50.872;6.692;2022-10-30T13:23:51;6.90;;;4.90;;
3873;SDS011;1952;50.872;6.692;2022-10-30T13:26:26;9.90;;;4.57;;
3873;SDS011;1952;50.872;6.692;2022-10-30T13:29:01;9.83;;;5.07;;
3873;SDS011;1952;50.872;6.692;2022-10-30T13:31:37;7.43;;;4.53;;
3873;SDS011;1952;50.872;6.692;2022-10-30T13:34:15;6.80;;;4.37;;
3873;SDS011;1952;50.872;6.692;2022-10-30T13:37:04;8.10;;;5.63;;
3873;SDS011;1952;50.872;6.692;2022-10-30T13:39:46;8.80;;;4.60;;
3873;SDS011;1952;50.872;6.692;2022-10-30T13:42:27;6.93;;;4.37;;
3873;SDS011;1952;50.872;6.692;2022-10-30T13:45:11;13.30;;;4.60;;
3873;SDS011;1952;50.872;6.692;2022-10-30T13:47:54;6.03;;;4.50;;
3873;SDS011;1952;50.872;6.692;2022-10-30T13:50:46;6.80;;;4.20;;
3873;SDS011;1952;50.872;6.692;2022-10-30T13:53:32;7.37;;;4.20;;
3873;SDS011;1952;50.872;6.692;2022-10-30T13:56:03;7.33;;;4.50;;
3873;SDS011;1952;50.872;6.692;2022-10-30T13:58:33;5.83;;;3.80;;
3873;SDS011;1952;50.872;6.692;2022-10-30T14:01:05;10.33;;;5.00;;
3873;SDS011;1952;50.872;6.692;2022-10-30T14:03:44;14.70;;;6.47;;
3873;SDS011;1952;50.872;6.692;2022-10-30T14:06:20;9.00;;;6.20;;
3873;SDS011;1952;50.872;6.692;2022-10-30T14:09:05;6.80;;;4.50;;
3873;SDS011;1952;50.872;6.692;2022-10-30T14:11:38;6.90;;;5.27;;
3873;SDS011;1952;50.872;6.692;2022-10-30T14:14:24;10.20;;;4.33;;
3873;SDS011;1952;50.872;6.692;2022-10-30T14:17:11;6.33;;;4.17;;
3873;SDS011;1952;50.872;6.692;2022-10-30T14:23:06;7.63;;;4.37;;
3873;SDS011;1952;50.872;6.692;2022-10-30T14:25:43;6.53;;;4.00;;
3873;SDS011;1952;50.872;6.692;2022-10-30T14:28:17;5.40;;;4.50;;
3873;SDS011;1952;50.872;6.692;2022-10-30T14:30:46;5.63;;;4.40;;
3873;SDS011;1952;50.872;6.692;2022-10-30T14:36:11;5.03;;;3.50;;
3873;SDS011;1952;50.872;6.692;2022-10-30T14:38:42;5.80;;;4.40;;
3873;SDS011;1952;50.872;6.692;2022-10-30T14:41:27;6.23;;;3.90;;
3873;SDS011;1952;50.872;6.692;2022-10-30T14:44:21;6.40;;;3.73;;
3873;SDS011;1952;50.872;6.692;2022-10-30T14:47:21;4.70;;;3.37;;
3873;SDS011;1952;50.872;6.692;2022-10-30T14:50:09;5.03;;;3.57;;
3873;SDS011;1952;50.872;6.692;2022-10-30T14:52:52;5.47;;;3.70;;
3873;SDS011;1952;50.872;6.692;2022-10-30T14:55:34;5.23;;;4.00;;
3873;SDS011;1952;50.872;6.692;2022-10-30T14:58:18;7.20;;;4.80;;
3873;SDS011;1952;50.872;6.692;2022-10-30T15:00:51;7.10;;;4.93;;
3873;SDS011;1952;50.872;6.692;2022-10-30T15:03:52;7.60;;;5.97;;
3873;SDS011;1952;50.872;6.692;2022-10-30T15:06:33;10.63;;;5.53;;
3873;SDS011;1952;50.872;6.692;2022-10-30T15:09:10;7.83;;;3.80;;
3873;SDS011;1952;50.872;6.692;2022-10-30T15:11:57;4.87;;;3.77;;
3873;SDS011;1952;50.872;6.692;2022-10-30T15:14:32;6.33;;;3.97;;
3873;SDS011;1952;50.872;6.692;2022-10-30T15:17:12;6.80;;;3.90;;
3873;SDS011;1952;50.872;6.692;2022-10-30T15:19:51;6.23;;;3.87;;
3873;SDS011;1952;50.872;6.692;2022-10-30T15:22:19;5.47;;;4.67;;
3873;SDS011;1952;50.872;6.692;2022-10-30T15:24:49;3.60;;;3.30;;
3873;SDS011;1952;50.872;6.692;2022-10-30T15:27:20;5.07;;;3.43;;
3873;SDS011;1952;50.872;6.692;2022-10-30T15:29:50;5.60;;;3.83;;
3873;SDS011;1952;50.872;6.692;2022-10-30T15:32:21;9.87;;;4.30;;
3873;SDS011;1952;50.872;6.692;2022-10-30T15:34:55;10.23;;;4.27;;
3873;SDS011;1952;50.872;6.692;2022-10-30T15:37:30;5.60;;;5.00;;
3873;SDS011;1952;50.872;6.692;2022-10-30T15:40:11;5.10;;;4.60;;
3873;SDS011;1952;50.872;6.692;2022-10-30T15:42:45;6.97;;;4.53;;
3873;SDS011;1952;50.872;6.692;2022-10-30T15:45:16;4.40;;;4.00;;
3873;SDS011;1952;50.872;6.692;2022-10-30T15:47:46;4.93;;;3.63;;
3873;SDS011;1952;50.872;6.692;2022-10-30T15:50:17;9.60;;;4.10;;
3873;SDS011;1952;50.872;6.692;2022-10-30T15:52:51;7.00;;;4.87;;
3873;SDS011;1952;50.872;6.692;2022-10-30T15:55:25;6.50;;;3.97;;
3873;SDS011;1952;50.872;6.692;2022-10-30T15:58:03;6.87;;;4.10;;
3873;SDS011;1952;50.872;6.692;2022-10-30T16:00:32;7.20;;;3.80;;
3873;SDS011;1952;50.872;6.692;2022-10-30T16:03:03;4.17;;;3.77;;
3873;SDS011;1952;50.872;6.692;2022-10-30T16:05:32;9.03;;;4.40;;
3873;SDS011;1952;50.872;6.692;2022-10-30T16:08:08;6.57;;;5.13;;
3873;SDS011;1952;50.872;6.692;2022-10-30T16:10:40;5.87;;;4.67;;
3873;SDS011;1952;50.872;6.692;2022-10-30T16:13:12;5.60;;;4.77;;
3873;SDS011;1952;50.872;6.692;2022-10-30T16:15:43;5.10;;;4.30;;
3873;SDS011;1952;50.872;6.692;2022-10-30T16:18:14;7.97;;;4.90;;
3873;SDS011;1952;50.872;6.692;2022-10-30T16:20:50;7.67;;;5.73;;
3873;SDS011;1952;50.872;6.692;2022-10-30T16:23:20;9.57;;;5.77;;
3873;SDS011;1952;50.872;6.692;2022-10-30T16:25:52;9.50;;;6.43;;
3873;SDS011;1952;50.872;6.692;2022-10-30T16:28:23;8.10;;;5.90;;
3873;SDS011;1952;50.872;6.692;2022-10-30T16:30:54;10.53;;;5.10;;
3873;SDS011;1952;50.872;6.692;2022-10-30T16:33:29;11.37;;;5.30;;
3873;SDS011;1952;50.872;6.692;2022-10-30T16:36:00;12.00;;;5.10;;
3873;SDS011;1952;50.872;6.692;2022-10-30T16:38:30;7.17;;;4.83;;
3873;SDS011;1952;50.872;6.692;2022-10-30T16:41:03;7.00;;;5.60;;
3873;SDS011;1952;50.872;6.692;2022-10-30T16:43:33;5.97;;;4.27;;
3873;SDS011;1952;50.872;6.692;2022-10-30T16:46:24;7.37;;;4.63;;
3873;SDS011;1952;50.872;6.692;2022-10-30T16:49:02;7.30;;;4.67;;
3873;SDS011;1952;50.872;6.692;2022-10-30T16:51:38;6.33;;;5.60;;
3873;SDS011;1952;50.872;6.692;2022-10-30T16:54:16;4.93;;;4.00;;
3873;SDS011;1952;50.872;6.692;2022-10-30T16:56:46;6.57;;;4.77;;
3873;SDS011;1952;50.872;6.692;2022-10-30T16:59:22;8.37;;;4.13;;
3873;SDS011;1952;50.872;6.692;2022-10-30T17:01:53;7.27;;;5.30;;
3873;SDS011;1952;50.872;6.692;2022-10-30T17:04:31;10.63;;;5.73;;
3873;SDS011;1952;50.872;6.692;2022-10-30T17:07:04;10.30;;;5.60;;
3873;SDS011;1952;50.872;6.692;2022-10-30T17:09:35;9.87;;;5.60;;
3873;SDS011;1952;50.872;6.692;2022-10-30T17:12:12;7.77;;;5.60;;
3873;SDS011;1952;50.872;6.692;2022-10-30T17:14:49;7.20;;;4.80;;
3873;SDS011;1952;50.872;6.692;2022-10-30T17:17:28;8.67;;;5.63;;
3873;SDS011;1952;50.872;6.692;2022-10-30T17:19:59;10.53;;;5.60;;
3873;SDS011;1952;50.872;6.692;2022-10-30T17:22:35;6.30;;;5.20;;
3873;SDS011;1952;50.872;6.692;2022-10-30T17:25:14;7.73;;;6.93;;
3873;SDS011;1952;50.872;6.692;2022-10-30T17:27:49;6.70;;;5.90;;
3873;SDS011;1952;50.872;6.692;2022-10-30T17:30:32;8.77;;;6.30;;
3873;SDS011;1952;50.872;6.692;2022-10-30T17:33:02;6.53;;;5.40;;
3873;SDS011;1952;50.872;6.692;2022-10-30T17:35:47;6.37;;;5.27;;
3873;SDS011;1952;50.872;6.692;2022-10-30T17:38:20;7.43;;;6.10;;
3873;SDS011;1952;50.872;6.692;2022-10-30T17:40:53;10.80;;;6.20;;
3873;SDS011;1952;50.872;6.692;2022-10-30T17:43:22;16.87;;;9.80;;
3873;SDS011;1952;50.872;6.692;2022-10-30T17:45:55;12.07;;;7.43;;
3873;SDS011;1952;50.872;6.692;2022-10-30T17:48:28;13.63;;;7.80;;
3873;SDS011;1952;50.872;6.692;2022-10-30T17:51:01;14.13;;;7.50;;
3873;SDS011;1952;50.872;6.692;2022-10-30T17:53:29;14.67;;;7.20;;
3873;SDS011;1952;50.872;6.692;2022-10-30T18:35:12;8.50;;;6.57;;
3873;SDS011;1952;50.872;6.692;2022-10-30T18:37:42;7.40;;;6.20;;
3873;SDS011;1952;50.872;6.692;2022-10-30T18:40:11;6.13;;;5.53;;
3873;SDS011;1952;50.872;6.692;2022-10-30T18:42:44;8.23;;;7.03;;
3873;SDS011;1952;50.872;6.692;2022-10-30T18:45:19;11.40;;;8.20;;
3873;SDS011;1952;50.872;6.692;2022-10-30T18:47:54;12.33;;;7.50;;
3873;SDS011;1952;50.872;6.692;2022-10-30T18:50:25;8.40;;;7.57;;
3873;SDS011;1952;50.872;6.692;2022-10-30T18:52:55;15.30;;;9.80;;
3873;SDS011;1952;50.872;6.692;2022-10-30T18:55:24;15.07;;;13.57;;
3873;SDS011;1952;50.872;6.692;2022-10-30T18:58:02;11.40;;;9.50;;
3873;SDS011;1952;50.872;6.692;2022-10-30T19:00:32;14.70;;;10.27;;
3873;SDS011;1952;50.872;6.692;2022-10-30T19:03:06;9.97;;;8.37;;
3873;SDS011;1952;50.872;6.692;2022-10-30T19:05:36;8.60;;;7.70;;
3873;SDS011;1952;50.872;6.692;2022-10-30T19:08:07;9.33;;;7.67;;
3873;SDS011;1952;50.872;6.692;2022-10-30T19:10:36;12.80;;;9.53;;
3873;SDS011;1952;50.872;6.692;2022-10-30T19:13:12;12.30;;;7.37;;
3873;SDS011;1952;50.872;6.692;2022-10-30T19:15:43;11.43;;;6.83;;
3873;SDS011;1952;50.872;6.692;2022-10-30T19:18:12;12.70;;;7.77;;
3873;SDS011;1952;50.872;6.692;2022-10-30T19:20:42;8.17;;;7.23;;
3873;SDS011;1952;50.872;6.692;2022-10-30T19:23:15;7.50;;;6.43;;
3873;SDS011;1952;50.872;6.692;2022-10-30T19:25:49;12.10;;;7.93;;
3873;SDS011;1952;50.872;6.692;2022-10-30T19:28:23;13.50;;;7.20;;
3873;SDS011;1952;50.872;6.692;2022-10-30T19:30:52;13.63;;;9.13;;
3873;SDS011;1952;50.872;6.692;2022-10-30T19:33:21;16.10;;;11.53;;
3873;SDS011;1952;50.872;6.692;2022-10-30T19:35:55;26.80;;;17.90;;
3873;SDS011;1952;50.872;6.692;2022-10-30T19:38:29;33.47;;;19.00;;
3873;SDS011;1952;50.872;6.692;2022-10-30T19:40:58;21.07;;;14.00;;
3873;SDS011;1952;50.872;6.692;2022-10-30T19:43:31;20.77;;;14.67;;
3873;SDS011;1952;50.872;6.692;2022-10-30T19:46:04;12.13;;;10.13;;
3873;SDS011;1952;50.872;6.692;2022-10-30T19:48:32;24.37;;;14.40;;
3873;SDS011;1952;50.872;6.692;2022-10-30T19:51:07;20.13;;;14.40;;
3873;SDS011;1952;50.872;6.692;2022-10-30T19:53:41;11.20;;;8.23;;
3873;SDS011;1952;50.872;6.692;2022-10-30T19:56:14;11.63;;;9.03;;
3873;SDS011;1952;50.872;6.692;2022-10-30T19:58:49;13.87;;;8.83;;